createdAt,value
2018-02-22T00:00:49.331Z,1014.08
2018-02-22T00:01:49.287Z,1014.19
2018-02-22T00:02:49.245Z,1014.24
2018-02-22T00:03:49.207Z,1014.24
2018-02-22T00:04:49.161Z,1014.24
2018-02-22T00:05:49.141Z,1014.19
2018-02-22T00:06:49.092Z,1014.22
2018-02-22T00:07:49.031Z,1014.26
2018-02-22T00:08:48.989Z,1014.22
2018-02-22T00:09:48.946Z,1014.18
2018-02-22T00:10:48.915Z,1014.20
2018-02-22T00:11:48.864Z,1014.24
2018-02-22T00:12:48.819Z,1014.17
2018-02-22T00:13:48.777Z,1014.16
2018-02-22T00:14:48.751Z,1014.15
2018-02-22T00:15:48.694Z,1014.18
2018-02-22T00:16:48.663Z,1014.16
2018-02-22T00:17:48.616Z,1014.15
2018-02-22T00:18:48.579Z,1014.16
2018-02-22T00:19:48.524Z,1014.07
2018-02-22T00:20:48.488Z,1014.18
2018-02-22T00:21:48.442Z,1014.17
2018-02-22T00:22:48.400Z,1014.18
2018-02-22T00:23:48.397Z,1014.09
2018-02-22T00:24:48.317Z,1014.15
2018-02-22T00:25:48.288Z,1014.14
2018-02-22T00:26:48.229Z,1014.05
2018-02-22T00:27:48.191Z,1013.97
2018-02-22T00:28:48.156Z,1014.12
2018-02-22T00:29:48.132Z,1014.04
2018-02-22T00:30:48.062Z,1014.05
2018-02-22T00:31:48.031Z,1014.05
2018-02-22T00:32:47.992Z,1014.05
2018-02-22T00:33:47.946Z,1014.04
2018-02-22T00:34:47.923Z,1014.05
2018-02-22T00:35:47.854Z,1014.03
2018-02-22T00:36:47.817Z,1013.98
2018-02-22T00:37:47.788Z,1013.95
2018-02-22T00:38:47.726Z,1013.98
2018-02-22T00:39:47.691Z,1013.96
2018-02-22T00:40:47.639Z,1013.92
2018-02-22T00:41:47.598Z,1013.97
2018-02-22T00:42:47.575Z,1013.93
2018-02-22T00:43:47.512Z,1013.97
2018-02-22T00:44:47.477Z,1013.91
2018-02-22T00:45:47.445Z,1013.88
2018-02-22T00:46:47.405Z,1013.90
2018-02-22T00:47:47.345Z,1013.96
2018-02-22T00:48:47.300Z,1013.86
2018-02-22T00:49:47.257Z,1013.92
2018-02-22T00:50:47.247Z,1013.94
2018-02-22T00:51:47.173Z,1013.95
2018-02-22T00:52:47.132Z,1013.90
2018-02-22T00:53:47.095Z,1013.91
2018-02-22T00:54:47.058Z,1013.80
2018-02-22T00:55:47.003Z,1013.86
2018-02-22T00:56:46.963Z,1013.88
2018-02-22T00:57:46.935Z,1013.86
2018-02-22T00:58:46.886Z,1013.89
2018-02-22T00:59:46.833Z,1013.81
2018-02-22T01:00:46.808Z,1013.87
2018-02-22T01:01:46.757Z,1013.85
2018-02-22T01:02:46.709Z,1013.82
2018-02-22T01:03:46.690Z,1013.85
2018-02-22T01:04:46.628Z,1013.82
2018-02-22T01:05:46.616Z,1013.78
2018-02-22T01:06:46.541Z,1013.79
2018-02-22T01:07:46.517Z,1013.82
2018-02-22T01:08:46.453Z,1013.86
2018-02-22T01:09:46.448Z,1013.89
2018-02-22T01:10:46.385Z,1013.82
2018-02-22T01:11:46.327Z,1013.85
2018-02-22T01:12:46.283Z,1013.89
2018-02-22T01:13:46.242Z,1013.88
2018-02-22T01:14:46.214Z,1013.86
2018-02-22T01:15:46.162Z,1013.82
2018-02-22T01:16:46.149Z,1013.84
2018-02-22T01:17:46.112Z,1013.87
2018-02-22T01:18:46.048Z,1013.78
2018-02-22T01:19:45.990Z,1013.88
2018-02-22T01:20:46.029Z,1013.85
2018-02-22T01:21:45.905Z,1013.81
2018-02-22T01:22:45.877Z,1013.87
2018-02-22T01:23:45.819Z,1013.85
2018-02-22T01:24:45.793Z,1013.83
2018-02-22T01:25:45.740Z,1013.74
2018-02-22T01:26:45.696Z,1013.82
2018-02-22T01:27:45.678Z,1013.85
2018-02-22T01:28:45.608Z,1013.86
2018-02-22T01:29:45.598Z,1013.87
2018-02-22T01:30:45.569Z,1013.87
2018-02-22T01:31:45.485Z,1013.87
2018-02-22T01:32:45.437Z,1013.87
2018-02-22T01:33:45.446Z,1013.83
2018-02-22T01:34:45.358Z,1013.90
2018-02-22T01:35:45.338Z,1013.87
2018-02-22T01:36:45.266Z,1013.82
2018-02-22T01:37:45.257Z,1013.85
2018-02-22T01:38:45.182Z,1013.80
2018-02-22T01:39:45.146Z,1013.86
2018-02-22T01:40:45.110Z,1013.84
2018-02-22T01:41:45.064Z,1013.87
2018-02-22T01:42:45.013Z,1013.83
2018-02-22T01:43:44.985Z,1013.80
2018-02-22T01:44:44.936Z,1013.83
2018-02-22T01:45:44.884Z,1013.86
2018-02-22T01:46:44.866Z,1013.78
2018-02-22T01:47:44.801Z,1013.87
2018-02-22T01:48:44.769Z,1013.79
2018-02-22T01:49:44.717Z,1013.85
2018-02-22T01:50:44.697Z,1013.83
2018-02-22T01:51:44.636Z,1013.83
2018-02-22T01:52:44.628Z,1013.82
2018-02-22T01:53:44.549Z,1013.72
2018-02-22T01:54:44.502Z,1013.68
2018-02-22T01:55:44.481Z,1013.80
2018-02-22T01:56:44.447Z,1013.77
2018-02-22T01:57:44.380Z,1013.75
2018-02-22T01:58:44.337Z,1013.80
2018-02-22T01:59:44.339Z,1013.80
2018-02-22T02:00:44.257Z,1013.73
2018-02-22T02:01:44.207Z,1013.75
2018-02-22T02:02:44.169Z,1013.76
2018-02-22T02:03:44.122Z,1013.78
2018-02-22T02:04:44.098Z,1013.78
2018-02-22T02:05:44.047Z,1013.73
2018-02-22T02:06:44.025Z,1013.76
2018-02-22T02:07:43.960Z,1013.79
2018-02-22T02:08:43.951Z,1013.75
2018-02-22T02:09:43.869Z,1013.71
2018-02-22T02:10:43.828Z,1013.71
2018-02-22T02:11:43.796Z,1013.70
2018-02-22T02:12:43.747Z,1013.71
2018-02-22T02:13:43.711Z,1013.69
2018-02-22T02:14:43.672Z,1013.68
2018-02-22T02:15:43.616Z,1013.68
2018-02-22T02:16:43.597Z,1013.65
2018-02-22T02:17:43.528Z,1013.65
2018-02-22T02:18:43.510Z,1013.56
2018-02-22T02:19:43.443Z,1013.65
2018-02-22T02:20:43.452Z,1013.62
2018-02-22T02:21:43.354Z,1013.62
2018-02-22T02:22:43.318Z,1013.57
2018-02-22T02:23:43.270Z,1013.53
2018-02-22T02:24:43.233Z,1013.52
2018-02-22T02:25:43.226Z,1013.57
2018-02-22T02:26:43.148Z,1013.60
2018-02-22T02:27:43.101Z,1013.56
2018-02-22T02:28:43.061Z,1013.59
2018-02-22T02:29:43.045Z,1013.56
2018-02-22T02:30:42.974Z,1013.56
2018-02-22T02:31:42.932Z,1013.52
2018-02-22T02:32:42.890Z,1013.57
2018-02-22T02:33:42.852Z,1013.54
2018-02-22T02:34:42.826Z,1013.56
2018-02-22T02:35:42.762Z,1013.58
2018-02-22T02:36:42.733Z,1013.55
2018-02-22T02:37:42.693Z,1013.47
2018-02-22T02:38:42.642Z,1013.58
2018-02-22T02:39:42.593Z,1013.58
2018-02-22T02:40:42.582Z,1013.53
2018-02-22T02:41:42.509Z,1013.58
2018-02-22T02:42:42.476Z,1013.55
2018-02-22T02:43:42.496Z,1013.51
2018-02-22T02:44:42.400Z,1013.52
2018-02-22T02:45:42.349Z,1013.51
2018-02-22T02:46:42.304Z,1013.43
2018-02-22T02:47:42.257Z,1013.48
2018-02-22T02:48:42.211Z,1013.43
2018-02-22T02:49:42.165Z,1013.52
2018-02-22T02:50:42.127Z,1013.48
2018-02-22T02:51:42.104Z,1013.42
2018-02-22T02:52:42.042Z,1013.45
2018-02-22T02:53:42.002Z,1013.42
2018-02-22T02:54:41.954Z,1013.46
2018-02-22T02:55:41.908Z,1013.37
2018-02-22T02:56:41.871Z,1013.47
2018-02-22T02:57:41.862Z,1013.39
2018-02-22T02:58:41.782Z,1013.43
2018-02-22T02:59:41.748Z,1013.43
2018-02-22T03:00:41.699Z,1013.38
2018-02-22T03:01:41.653Z,1013.41
2018-02-22T03:02:41.613Z,1013.46
2018-02-22T03:03:41.588Z,1013.38
2018-02-22T03:04:41.524Z,1013.43
2018-02-22T03:05:41.499Z,1013.41
2018-02-22T03:06:41.474Z,1013.38
2018-02-22T03:07:41.407Z,1013.42
2018-02-22T03:08:41.359Z,1013.42
2018-02-22T03:09:41.311Z,1013.41
2018-02-22T03:10:41.277Z,1013.47
2018-02-22T03:11:41.234Z,1013.40
2018-02-22T03:12:41.202Z,1013.43
2018-02-22T03:13:41.162Z,1013.41
2018-02-22T03:14:41.098Z,1013.43
2018-02-22T03:15:41.847Z,1013.47
2018-02-22T03:16:41.014Z,1013.50
2018-02-22T03:17:40.969Z,1013.44
2018-02-22T03:18:40.943Z,1013.42
2018-02-22T03:19:40.927Z,1013.37
2018-02-22T03:20:40.841Z,1013.26
2018-02-22T03:21:40.827Z,1013.39
2018-02-22T03:22:40.801Z,1013.44
2018-02-22T03:23:40.725Z,1013.42
2018-02-22T03:24:40.673Z,1013.38
2018-02-22T03:25:40.632Z,1013.41
2018-02-22T03:26:40.596Z,1013.33
2018-02-22T03:27:40.554Z,1013.39
2018-02-22T03:28:40.536Z,1013.33
2018-02-22T03:29:40.486Z,1013.20
2018-02-22T03:30:40.421Z,1013.30
2018-02-22T03:31:40.375Z,1013.29
2018-02-22T03:32:40.337Z,1013.35
2018-02-22T03:33:40.287Z,1013.31
2018-02-22T03:34:40.249Z,1013.34
2018-02-22T03:35:40.208Z,1013.35
2018-02-22T03:36:40.164Z,1013.36
2018-02-22T03:37:40.118Z,1013.38
2018-02-22T03:38:40.083Z,1013.37
2018-02-22T03:39:40.064Z,1013.31
2018-02-22T03:40:39.992Z,1013.40
2018-02-22T03:41:39.945Z,1013.36
2018-02-22T03:42:39.923Z,1013.39
2018-02-22T03:43:39.862Z,1013.35
2018-02-22T03:44:39.832Z,1013.35
2018-02-22T03:45:39.777Z,1013.27
2018-02-22T03:46:39.746Z,1013.28
2018-02-22T03:47:39.701Z,1013.33
2018-02-22T03:48:39.662Z,1013.32
2018-02-22T03:49:39.617Z,1013.30
2018-02-22T03:50:39.567Z,1013.34
2018-02-22T03:51:39.527Z,1013.30
2018-02-22T03:52:39.504Z,1013.22
2018-02-22T03:53:39.454Z,1013.33
2018-02-22T03:54:39.422Z,1013.36
2018-02-22T03:55:39.355Z,1013.35
2018-02-22T03:56:39.338Z,1013.21
2018-02-22T03:57:39.303Z,1013.35
2018-02-22T03:58:39.232Z,1013.40
2018-02-22T03:59:39.235Z,1013.37
2018-02-22T04:00:39.138Z,1013.35
2018-02-22T04:01:39.127Z,1013.35
2018-02-22T04:02:39.061Z,1013.38
2018-02-22T04:03:39.016Z,1013.27
2018-02-22T04:04:38.983Z,1013.34
2018-02-22T04:05:38.933Z,1013.30
2018-02-22T04:06:38.895Z,1013.31
2018-02-22T04:07:38.836Z,1013.35
2018-02-22T04:08:38.803Z,1013.35
2018-02-22T04:09:38.778Z,1013.29
2018-02-22T04:10:38.727Z,1013.36
2018-02-22T04:11:38.674Z,1013.36
2018-02-22T04:12:38.623Z,1013.33
2018-02-22T04:13:38.600Z,1013.36
2018-02-22T04:14:38.540Z,1013.31
2018-02-22T04:15:38.501Z,1013.35
2018-02-22T04:16:38.459Z,1013.30
2018-02-22T04:17:38.423Z,1013.30
2018-02-22T04:18:38.379Z,1013.34
2018-02-22T04:19:38.332Z,1013.32
2018-02-22T04:20:38.297Z,1013.35
2018-02-22T04:21:38.276Z,1013.35
2018-02-22T04:22:38.213Z,1013.38
2018-02-22T04:23:38.157Z,1013.36
2018-02-22T04:24:38.110Z,1013.38
2018-02-22T04:25:38.070Z,1013.34
2018-02-22T04:26:38.028Z,1013.33
2018-02-22T04:27:38.003Z,1013.37
2018-02-22T04:28:37.944Z,1013.41
2018-02-22T04:29:37.896Z,1013.42
2018-02-22T04:30:37.853Z,1013.43
2018-02-22T04:31:37.843Z,1013.45
2018-02-22T04:32:37.780Z,1013.42
2018-02-22T04:33:37.726Z,1013.50
2018-02-22T04:34:37.698Z,1013.48
2018-02-22T04:35:37.666Z,1013.42
2018-02-22T04:36:37.600Z,1013.47
2018-02-22T04:37:37.558Z,1013.51
2018-02-22T04:38:37.514Z,1013.43
2018-02-22T04:39:37.473Z,1013.42
2018-02-22T04:40:37.433Z,1013.49
2018-02-22T04:41:37.399Z,1013.48
2018-02-22T04:42:37.365Z,1013.50
2018-02-22T04:43:37.306Z,1013.53
2018-02-22T04:44:37.261Z,1013.55
2018-02-22T04:45:37.214Z,1013.52
2018-02-22T04:46:37.202Z,1013.53
2018-02-22T04:47:37.147Z,1013.58
2018-02-22T04:48:37.103Z,1013.57
2018-02-22T04:49:37.043Z,1013.54
2018-02-22T04:50:37.032Z,1013.56
2018-02-22T04:51:36.980Z,1013.53
2018-02-22T04:52:36.916Z,1013.50
2018-02-22T04:53:36.875Z,1013.54
2018-02-22T04:54:36.847Z,1013.57
2018-02-22T04:55:36.815Z,1013.58
2018-02-22T04:56:36.783Z,1013.52
2018-02-22T04:57:36.709Z,1013.53
2018-02-22T04:58:36.661Z,1013.53
2018-02-22T04:59:36.615Z,1013.58
2018-02-22T05:00:36.580Z,1013.49
2018-02-22T05:01:36.577Z,1013.56
2018-02-22T05:02:36.499Z,1013.57
2018-02-22T05:03:36.449Z,1013.56
2018-02-22T05:04:36.407Z,1013.56
2018-02-22T05:05:36.360Z,1013.55
2018-02-22T05:06:36.317Z,1013.54
2018-02-22T05:07:36.318Z,1013.56
2018-02-22T05:08:36.242Z,1013.43
2018-02-22T05:09:36.224Z,1013.52
2018-02-22T05:10:36.151Z,1013.54
2018-02-22T05:11:36.105Z,1013.55
2018-02-22T05:12:36.117Z,1013.56
2018-02-22T05:13:36.032Z,1013.57
2018-02-22T05:14:36.011Z,1013.53
2018-02-22T05:15:35.936Z,1013.56
2018-02-22T05:16:35.895Z,1013.54
2018-02-22T05:17:35.864Z,1013.49
2018-02-22T05:18:35.823Z,1013.49
2018-02-22T05:19:35.773Z,1013.51
2018-02-22T05:20:35.744Z,1013.59
2018-02-22T05:21:35.683Z,1013.48
2018-02-22T05:22:35.675Z,1013.55
2018-02-22T05:23:35.613Z,1013.56
2018-02-22T05:24:35.557Z,1013.57
2018-02-22T05:25:35.526Z,1013.57
2018-02-22T05:26:35.461Z,1013.54
2018-02-22T05:27:35.417Z,1013.53
2018-02-22T05:28:35.397Z,1013.49
2018-02-22T05:29:35.337Z,1013.48
2018-02-22T05:30:35.301Z,1013.46
2018-02-22T05:31:35.247Z,1013.53
2018-02-22T05:32:35.226Z,1013.46
2018-02-22T05:33:35.160Z,1013.57
2018-02-22T05:34:35.118Z,1013.56
2018-02-22T05:35:35.076Z,1013.58
2018-02-22T05:36:35.034Z,1013.54
2018-02-22T05:37:34.994Z,1013.62
2018-02-22T05:38:34.966Z,1013.59
2018-02-22T05:39:34.973Z,1013.56
2018-02-22T05:40:34.895Z,1013.64
2018-02-22T05:41:34.820Z,1013.61
2018-02-22T05:42:34.780Z,1013.63
2018-02-22T05:43:34.747Z,1013.61
2018-02-22T05:44:34.699Z,1013.65
2018-02-22T05:45:34.652Z,1013.67
2018-02-22T05:46:34.613Z,1013.64
2018-02-22T05:47:34.588Z,1013.64
2018-02-22T05:48:34.525Z,1013.67
2018-02-22T05:49:34.481Z,1013.65
2018-02-22T05:50:34.437Z,1013.67
2018-02-22T05:51:34.422Z,1013.72
2018-02-22T05:52:34.350Z,1013.69
2018-02-22T05:53:34.309Z,1013.71
2018-02-22T05:54:34.270Z,1013.70
2018-02-22T05:55:34.221Z,1013.70
2018-02-22T05:56:34.231Z,1013.67
2018-02-22T05:57:34.170Z,1013.69
2018-02-22T05:58:34.100Z,1013.73
2018-02-22T05:59:34.058Z,1013.74
2018-02-22T06:00:34.013Z,1013.74
2018-02-22T06:01:33.988Z,1013.70
2018-02-22T06:02:33.935Z,1013.80
2018-02-22T06:03:33.888Z,1013.80
2018-02-22T06:04:33.835Z,1013.82
2018-02-22T06:05:33.826Z,1013.75
2018-02-22T06:06:33.747Z,1013.69
2018-02-22T06:07:33.796Z,1013.83
2018-02-22T06:08:33.661Z,1013.84
2018-02-22T06:09:33.621Z,1013.88
2018-02-22T06:10:33.588Z,1013.86
2018-02-22T06:11:33.533Z,1013.79
2018-02-22T06:12:33.538Z,1013.88
2018-02-22T06:13:33.458Z,1013.94
2018-02-22T06:14:33.410Z,1013.85
2018-02-22T06:15:33.364Z,1013.83
2018-02-22T06:16:33.322Z,1013.90
2018-02-22T06:17:33.276Z,1013.94
2018-02-22T06:18:33.250Z,1013.92
2018-02-22T06:19:33.191Z,1013.89
2018-02-22T06:20:33.146Z,1013.97
2018-02-22T06:21:33.106Z,1013.89
2018-02-22T06:22:33.070Z,1013.91
2018-02-22T06:23:33.019Z,1013.94
2018-02-22T06:24:33.666Z,1013.82
2018-02-22T06:25:32.939Z,1013.92
2018-02-22T06:26:32.903Z,1013.94
2018-02-22T06:27:32.858Z,1013.95
2018-02-22T06:28:32.805Z,1013.95
2018-02-22T06:29:32.769Z,1013.99
2018-02-22T06:30:32.740Z,1013.90
2018-02-22T06:31:32.694Z,1013.99
2018-02-22T06:32:32.648Z,1014.01
2018-02-22T06:33:32.590Z,1014.04
2018-02-22T06:34:32.592Z,1014.00
2018-02-22T06:35:32.517Z,1014.04
2018-02-22T06:36:32.499Z,1014.00
2018-02-22T06:37:32.420Z,1014.11
2018-02-22T06:38:32.378Z,1014.10
2018-02-22T06:39:32.334Z,1014.15
2018-02-22T06:40:32.343Z,1014.13
2018-02-22T06:41:32.248Z,1014.08
2018-02-22T06:42:32.204Z,1014.12
2018-02-22T06:43:32.162Z,1014.12
2018-02-22T06:44:32.119Z,1014.03
2018-02-22T06:45:32.075Z,1014.12
2018-02-22T06:46:32.033Z,1014.08
2018-02-22T06:47:31.992Z,1014.13
2018-02-22T06:48:31.952Z,1014.13
2018-02-22T06:49:31.906Z,1014.10
2018-02-22T06:50:31.877Z,1014.02
2018-02-22T06:51:31.830Z,1014.02
2018-02-22T06:52:31.778Z,1014.10
2018-02-22T06:53:31.767Z,1014.11
2018-02-22T06:54:31.743Z,1014.15
2018-02-22T06:55:31.650Z,1014.12
2018-02-22T06:56:31.609Z,1014.10
2018-02-22T06:57:31.562Z,1014.15
2018-02-22T06:58:31.520Z,1014.16
2018-02-22T06:59:31.479Z,1014.12
2018-02-22T07:00:31.455Z,1014.20
2018-02-22T07:01:31.392Z,1014.20
2018-02-22T07:02:31.350Z,1014.17
2018-02-22T07:03:31.310Z,1014.18
2018-02-22T07:04:31.266Z,1014.20
2018-02-22T07:05:31.222Z,1014.23
2018-02-22T07:06:31.433Z,1014.23
2018-02-22T07:07:31.138Z,1014.17
2018-02-22T07:08:31.100Z,1014.20
2018-02-22T07:09:31.093Z,1014.13
2018-02-22T07:10:31.012Z,1014.18
2018-02-22T07:11:30.972Z,1014.19
2018-02-22T07:12:30.929Z,1014.23
2018-02-22T07:13:30.886Z,1014.25
2018-02-22T07:14:30.846Z,1014.18
2018-02-22T07:15:30.807Z,1014.17
2018-02-22T07:16:30.761Z,1014.24
2018-02-22T07:17:30.721Z,1014.21
2018-02-22T07:18:30.680Z,1014.28
2018-02-22T07:19:30.644Z,1014.27
2018-02-22T07:20:30.612Z,1014.28
2018-02-22T07:21:30.554Z,1014.29
2018-02-22T07:22:30.515Z,1014.25
2018-02-22T07:23:30.476Z,1014.21
2018-02-22T07:24:30.438Z,1014.31
2018-02-22T07:25:30.394Z,1014.26
2018-02-22T07:26:30.358Z,1014.26
2018-02-22T07:27:30.316Z,1014.26
2018-02-22T07:28:30.278Z,1014.26
2018-02-22T07:29:30.238Z,1014.28
2018-02-22T07:30:30.206Z,1014.32
2018-02-22T07:31:30.157Z,1014.29
2018-02-22T07:32:30.118Z,1014.18
2018-02-22T07:33:30.080Z,1014.25
2018-02-22T07:34:30.038Z,1014.34
2018-02-22T07:35:30.002Z,1014.26
2018-02-22T07:36:29.961Z,1014.32
2018-02-22T07:37:29.926Z,1014.36
2018-02-22T07:38:29.884Z,1014.29
2018-02-22T07:39:29.846Z,1014.35
2018-02-22T07:40:29.808Z,1014.31
2018-02-22T07:41:29.771Z,1014.37
2018-02-22T07:42:29.734Z,1014.44
2018-02-22T07:43:29.698Z,1014.39
2018-02-22T07:44:29.658Z,1014.43
2018-02-22T07:45:29.621Z,1014.45
2018-02-22T07:46:29.584Z,1014.45
2018-02-22T07:47:29.548Z,1014.41
2018-02-22T07:48:29.516Z,1014.41
2018-02-22T07:49:29.476Z,1014.45
2018-02-22T07:50:29.441Z,1014.42
2018-02-22T07:51:29.401Z,1014.43
2018-02-22T07:52:29.425Z,1014.44
2018-02-22T07:53:29.330Z,1014.48
2018-02-22T07:54:29.293Z,1014.52
2018-02-22T07:55:29.259Z,1014.39
2018-02-22T07:56:29.223Z,1014.45
2018-02-22T07:57:29.187Z,1014.49
2018-02-22T07:58:29.159Z,1014.45
2018-02-22T07:59:29.121Z,1014.54
2018-02-22T08:00:29.082Z,1014.50
2018-02-22T08:01:29.047Z,1014.52
2018-02-22T08:02:29.018Z,1014.47
2018-02-22T08:03:28.984Z,1014.54
2018-02-22T08:04:28.944Z,1014.50
2018-02-22T08:05:28.908Z,1014.51
2018-02-22T08:06:28.879Z,1014.56
2018-02-22T08:07:28.839Z,1014.61
2018-02-22T08:08:28.809Z,1014.61
2018-02-22T08:09:28.785Z,1014.58
2018-02-22T08:10:28.742Z,1014.54
2018-02-22T08:11:28.707Z,1014.58
2018-02-22T08:12:28.678Z,1014.55
2018-02-22T08:13:28.639Z,1014.49
2018-02-22T08:14:28.605Z,1014.56
2018-02-22T08:15:28.573Z,1014.56
2018-02-22T08:16:28.543Z,1014.50
2018-02-22T08:17:28.511Z,1014.52
2018-02-22T08:18:28.476Z,1014.64
2018-02-22T08:19:28.439Z,1014.63
2018-02-22T08:20:28.421Z,1014.62
2018-02-22T08:21:28.377Z,1014.62
2018-02-22T08:22:28.346Z,1014.51
2018-02-22T08:23:28.313Z,1014.59
2018-02-22T08:24:28.281Z,1014.56
2018-02-22T08:25:28.244Z,1014.61
2018-02-22T08:26:28.220Z,1014.58
2018-02-22T08:27:28.181Z,1014.53
2018-02-22T08:28:28.154Z,1014.48
2018-02-22T08:29:28.121Z,1014.55
2018-02-22T08:30:28.092Z,1014.53
2018-02-22T08:31:28.056Z,1014.60
2018-02-22T08:32:28.025Z,1014.61
2018-02-22T08:33:27.991Z,1014.63
2018-02-22T08:34:27.961Z,1014.49
2018-02-22T08:35:27.937Z,1014.60
2018-02-22T08:36:27.897Z,1014.57
2018-02-22T08:37:27.864Z,1014.61
2018-02-22T08:38:27.836Z,1014.53
2018-02-22T08:39:27.841Z,1014.58
2018-02-22T08:40:27.774Z,1014.54
2018-02-22T08:41:27.747Z,1014.54
2018-02-22T08:42:27.711Z,1014.51
2018-02-22T08:43:27.701Z,1014.52
2018-02-22T08:44:27.654Z,1014.53
2018-02-22T08:45:27.618Z,1014.52
2018-02-22T08:46:27.589Z,1014.51
2018-02-22T08:47:27.559Z,1014.56
2018-02-22T08:48:27.530Z,1014.46
2018-02-22T08:49:27.500Z,1014.54
2018-02-22T08:50:27.469Z,1014.54
2018-02-22T08:51:27.439Z,1014.61
2018-02-22T08:52:27.409Z,1014.58
2018-02-22T08:53:27.380Z,1014.57
2018-02-22T08:54:27.366Z,1014.54
2018-02-22T08:55:27.321Z,1014.53
2018-02-22T08:56:27.295Z,1014.52
2018-02-22T08:57:27.261Z,1014.54
2018-02-22T08:58:27.234Z,1014.58
2018-02-22T08:59:27.209Z,1014.54
2018-02-22T09:00:27.176Z,1014.54
2018-02-22T09:01:27.155Z,1014.51
2018-02-22T09:02:27.120Z,1014.54
2018-02-22T09:03:27.086Z,1014.50
2018-02-22T09:04:27.058Z,1014.58
2018-02-22T09:05:27.028Z,1014.49
2018-02-22T09:06:27.001Z,1014.59
2018-02-22T09:07:26.972Z,1014.54
2018-02-22T09:08:26.947Z,1014.50
2018-02-22T09:09:26.913Z,1014.48
2018-02-22T09:10:26.894Z,1014.58
2018-02-22T09:11:26.856Z,1014.54
2018-02-22T09:12:26.830Z,1014.47
2018-02-22T09:13:26.803Z,1014.46
2018-02-22T09:14:26.773Z,1014.47
2018-02-22T09:15:26.744Z,1014.52
2018-02-22T09:16:26.717Z,1014.57
2018-02-22T09:17:26.687Z,1014.57
2018-02-22T09:18:26.671Z,1014.56
2018-02-22T09:19:26.637Z,1014.53
2018-02-22T09:20:26.603Z,1014.52
2018-02-22T09:21:26.577Z,1014.51
2018-02-22T09:22:26.555Z,1014.52
2018-02-22T09:23:26.522Z,1014.57
2018-02-22T09:24:26.495Z,1014.56
2018-02-22T09:25:26.466Z,1014.58
2018-02-22T09:26:26.438Z,1014.52
2018-02-22T09:27:26.417Z,1014.50
2018-02-22T09:28:26.404Z,1014.50
2018-02-22T09:29:26.363Z,1014.46
2018-02-22T09:30:26.336Z,1014.45
2018-02-22T09:31:26.310Z,1014.47
2018-02-22T09:32:26.278Z,1014.45
2018-02-22T09:33:26.255Z,1014.44
2018-02-22T09:34:26.227Z,1014.50
2018-02-22T09:35:26.218Z,1014.52
2018-02-22T09:36:26.184Z,1014.53
2018-02-22T09:37:26.151Z,1014.40
2018-02-22T09:38:26.126Z,1014.48
2018-02-22T09:39:26.098Z,1014.46
2018-02-22T09:40:26.072Z,1014.46
2018-02-22T09:41:26.043Z,1014.38
2018-02-22T09:42:26.025Z,1014.42
2018-02-22T09:43:25.994Z,1014.44
2018-02-22T09:44:25.970Z,1014.37
2018-02-22T09:45:25.941Z,1014.41
2018-02-22T09:46:25.915Z,1014.48
2018-02-22T09:47:25.903Z,1014.45
2018-02-22T09:48:25.867Z,1014.45
2018-02-22T09:49:25.848Z,1014.41
2018-02-22T09:50:25.815Z,1014.48
2018-02-22T09:51:25.803Z,1014.47
2018-02-22T09:52:25.767Z,1014.47
2018-02-22T09:53:25.743Z,1014.49
2018-02-22T09:54:25.722Z,1014.51
2018-02-22T09:55:25.711Z,1014.53
2018-02-22T09:56:25.665Z,1014.52
2018-02-22T09:57:25.642Z,1014.53
2018-02-22T09:58:25.618Z,1014.43
2018-02-22T09:59:25.588Z,1014.55
2018-02-22T10:00:25.566Z,1014.48
2018-02-22T10:01:25.540Z,1014.47
2018-02-22T10:02:25.520Z,1014.53
2018-02-22T10:03:25.494Z,1014.40
2018-02-22T10:04:25.470Z,1014.44
2018-02-22T10:05:25.446Z,1014.49
2018-02-22T10:06:25.427Z,1014.49
2018-02-22T10:07:25.393Z,1014.40
2018-02-22T10:08:25.372Z,1014.42
2018-02-22T10:09:25.349Z,1014.38
2018-02-22T10:10:25.322Z,1014.42
2018-02-22T10:11:25.297Z,1014.42
2018-02-22T10:12:25.273Z,1014.34
2018-02-22T10:13:25.254Z,1014.38
2018-02-22T10:14:25.222Z,1014.35
2018-02-22T10:15:25.209Z,1014.38
2018-02-22T10:16:25.180Z,1014.36
2018-02-22T10:17:25.152Z,1014.37
2018-02-22T10:18:25.128Z,1014.36
2018-02-22T10:19:25.108Z,1014.38
2018-02-22T10:20:25.080Z,1014.38
2018-02-22T10:21:25.057Z,1014.40
2018-02-22T10:22:25.036Z,1014.38
2018-02-22T10:23:25.013Z,1014.36
2018-02-22T10:24:24.988Z,1014.38
2018-02-22T10:25:24.966Z,1014.43
2018-02-22T10:26:24.938Z,1014.39
2018-02-22T10:27:24.918Z,1014.36
2018-02-22T10:28:24.897Z,1014.33
2018-02-22T10:29:24.871Z,1014.29
2018-02-22T10:30:24.846Z,1014.35
2018-02-22T10:31:24.824Z,1014.23
2018-02-22T10:32:24.799Z,1014.30
2018-02-22T10:33:24.788Z,1014.37
2018-02-22T10:34:24.754Z,1014.29
2018-02-22T10:35:24.734Z,1014.29
2018-02-22T10:36:24.712Z,1014.29
2018-02-22T10:37:24.685Z,1014.25
2018-02-22T10:38:24.660Z,1014.24
2018-02-22T10:39:24.637Z,1014.29
2018-02-22T10:40:24.624Z,1014.28
2018-02-22T10:41:24.595Z,1014.24
2018-02-22T10:42:24.571Z,1014.32
2018-02-22T10:43:24.548Z,1014.27
2018-02-22T10:44:24.526Z,1014.26
2018-02-22T10:45:24.501Z,1014.23
2018-02-22T10:46:24.495Z,1014.23
2018-02-22T10:47:24.469Z,1014.15
2018-02-22T10:48:24.433Z,1014.17
2018-02-22T10:49:24.418Z,1014.17
2018-02-22T10:50:24.386Z,1014.13
2018-02-22T10:51:24.367Z,1014.17
2018-02-22T10:52:24.344Z,1014.23
2018-02-22T10:53:24.316Z,1014.08
2018-02-22T10:54:24.301Z,1014.20
2018-02-22T10:55:24.274Z,1014.23
2018-02-22T10:56:24.248Z,1014.22
2018-02-22T10:57:24.224Z,1014.19
2018-02-22T10:58:24.200Z,1014.15
2018-02-22T10:59:24.181Z,1014.27
2018-02-22T11:00:24.222Z,1014.25
2018-02-22T11:01:24.135Z,1014.16
2018-02-22T11:02:24.113Z,1014.17
2018-02-22T11:03:24.090Z,1014.23
2018-02-22T11:04:24.066Z,1014.19
2018-02-22T11:05:24.044Z,1014.23
2018-02-22T11:06:24.020Z,1014.18
2018-02-22T11:07:23.999Z,1014.14
2018-02-22T11:08:23.970Z,1014.11
2018-02-22T11:09:23.999Z,1014.16
2018-02-22T11:10:23.923Z,1014.16
2018-02-22T11:11:23.902Z,1014.14
2018-02-22T11:12:23.876Z,1014.17
2018-02-22T11:13:23.859Z,1014.19
2018-02-22T11:14:23.829Z,1014.14
2018-02-22T11:15:23.818Z,1014.16
2018-02-22T11:16:23.784Z,1014.14
2018-02-22T11:17:23.758Z,1014.12
2018-02-22T11:18:23.742Z,1014.21
2018-02-22T11:19:23.715Z,1014.24
2018-02-22T11:20:23.692Z,1014.23
2018-02-22T11:21:23.667Z,1014.21
2018-02-22T11:22:23.645Z,1014.23
2018-02-22T11:23:23.625Z,1014.23
2018-02-22T11:24:23.593Z,1014.15
2018-02-22T11:25:23.701Z,1014.10
2018-02-22T11:26:23.547Z,1014.11
2018-02-22T11:27:23.530Z,1014.29
2018-02-22T11:28:23.501Z,1014.09
2018-02-22T11:29:23.474Z,1014.09
2018-02-22T11:30:23.453Z,1014.13
2018-02-22T11:31:23.432Z,1014.12
2018-02-22T11:32:23.407Z,1014.20
2018-02-22T11:33:23.400Z,1014.20
2018-02-22T11:34:23.361Z,1014.19
2018-02-22T11:35:23.342Z,1014.16
2018-02-22T11:36:23.312Z,1014.19
2018-02-22T11:37:23.300Z,1014.17
2018-02-22T11:38:23.267Z,1014.09
2018-02-22T11:39:23.245Z,1014.17
2018-02-22T11:40:23.223Z,1014.21
2018-02-22T11:41:23.198Z,1014.13
2018-02-22T11:42:23.175Z,1014.11
2018-02-22T11:43:23.163Z,1014.16
2018-02-22T11:44:23.127Z,1014.21
2018-02-22T11:45:23.116Z,1014.07
2018-02-22T11:46:23.081Z,1014.16
2018-02-22T11:47:23.062Z,1014.05
2018-02-22T11:48:23.036Z,1014.01
2018-02-22T11:49:23.012Z,1014.07
2018-02-22T11:50:23.055Z,1014.02
2018-02-22T11:51:22.974Z,1014.05
2018-02-22T11:52:22.946Z,1013.99
2018-02-22T11:53:23.192Z,1013.88
2018-02-22T11:54:22.903Z,1013.91
2018-02-22T11:55:22.882Z,1013.92
2018-02-22T11:56:22.876Z,1013.87
2018-02-22T11:57:23.258Z,1013.81
2018-02-22T11:58:22.827Z,1013.82
2018-02-22T11:59:22.786Z,1013.85
2018-02-22T12:00:22.762Z,1013.74
2018-02-22T12:01:22.741Z,1013.77
2018-02-22T12:02:22.718Z,1013.69
2018-02-22T12:03:22.695Z,1013.83
2018-02-22T12:04:22.673Z,1013.71
2018-02-22T12:05:22.652Z,1013.85